Terminal Aerodrome Forecast
Issued by NWS Twin Cities, MN

Home | Current Version | Previous Version | Text Only | Print | Product List | Glossary On
Versions: 1 2 3 4 5 6 7 8 9 10 11 12 13 14 15 16 17
000
FTUS43 KMPX 040520
TAFEAU
TAF
KEAU 040520Z 0406/0506 29014G20KT P6SM FEW020
     FM041200 28007KT P6SM FEW250
     FM041600 29013G19KT P6SM SCT040 BKN250
     FM050200 29006KT P6SM FEW250=

USA.gov is the U.S. government's official web portal to all federal, state and local government web resources and services.